Time;durP1;ratioP1;P1;durP2;ratioP2;P2;SDS_P1;SDS_P2;PMS_P1;PMS_P2;Temp;Humidity;BMP_temperature;BMP_pressure;BME280_temperature;BME280_humidity;BME280_pressure;Samples;Min_cycle;Max_cycle;Signal;HPM_P1;HPM_P2
2021/12/23 00:00:39;;;;;;;;;;;22.20;21.50;;;;;;487351;243;1244;-76
2021/12/23 00:02:41;;;;;;;;;;;22.30;21.50;;;;;;487485;243;1073;-76
2021/12/23 00:04:42;;;;;;;;;;;22.10;21.60;;;;;;487428;243;1013;-76
2021/12/23 00:06:44;;;;;;;;;;;21.90;21.80;;;;;;487356;243;2134;-76
2021/12/23 00:08:45;;;;;;;;;;;21.90;21.50;;;;;;487380;243;1154;-76
2021/12/23 00:10:47;;;;;;;;;;;22.20;21.60;;;;;;487358;243;1101;-76
2021/12/23 00:12:48;;;;;;;;;;;22.10;21.60;;;;;;487403;243;1138;-76
2021/12/23 00:14:51;;;;;;;;;;;22.20;21.40;;;;;;487413;243;1004;-76
2021/12/23 00:17:06;;;;;;;;;;;22.30;21.60;;;;;;487308;244;1419;-76
2021/12/23 00:18:58;;;;;;;;;;;22.30;21.50;;;;;;486430;244;1401;-76
2021/12/23 00:23:26;;;;;;;;;;;21.40;21.80;;;;;;487386;244;1180;-76
2021/12/23 00:25:27;;;;;;;;;;;21.10;22.00;;;;;;487343;243;1255;-76
2021/12/23 00:27:28;;;;;;;;;;;21.70;21.90;;;;;;487361;243;2111;-76
2021/12/23 00:29:29;;;;;;;;;;;22.10;21.70;;;;;;487383;243;982;-76
2021/12/23 00:31:31;;;;;;;;;;;22.20;21.50;;;;;;487352;243;1442;-76
2021/12/23 00:33:33;;;;;;;;;;;22.10;21.40;;;;;;487511;243;1092;-76
2021/12/23 00:35:33;;;;;;;;;;;21.90;21.50;;;;;;487506;244;1444;-76
2021/12/23 00:37:39;;;;;;;;;;;22.30;21.40;;;;;;487313;243;1087;-76
2021/12/23 00:39:37;;;;;;;;;;;21.90;21.40;;;;;;487207;244;1387;-76
2021/12/23 00:41:40;;;;;;;;;;;22.10;21.30;;;;;;487338;243;1270;-76
2021/12/23 00:43:39;;;;;;;;;;;22.00;21.30;;;;;;487289;244;1376;-76
2021/12/23 00:45:41;;;;;;;;;;;22.30;21.30;;;;;;487365;243;944;-76
2021/12/23 00:47:42;;;;;;;;;;;22.60;21.10;;;;;;487417;243;2123;-76
2021/12/23 00:49:43;;;;;;;;;;;22.10;21.30;;;;;;487372;243;997;-76
2021/12/23 00:51:45;;;;;;;;;;;22.00;21.30;;;;;;487340;243;1106;-76
2021/12/23 00:53:49;;;;;;;;;;;22.10;21.30;;;;;;487361;243;940;-76
2021/12/23 00:55:49;;;;;;;;;;;22.40;21.30;;;;;;487212;244;1399;-76
2021/12/23 00:57:49;;;;;;;;;;;22.40;21.20;;;;;;487218;244;1424;-77
2021/12/23 00:59:50;;;;;;;;;;;22.50;20.90;;;;;;487447;243;1090;-76
2021/12/23 01:01:52;;;;;;;;;;;22.70;21.10;;;;;;487303;243;1178;-76
2021/12/23 01:03:53;;;;;;;;;;;22.40;21.20;;;;;;487404;243;940;-76
2021/12/23 01:05:54;;;;;;;;;;;22.60;20.80;;;;;;487380;243;1047;-76
2021/12/23 01:07:56;;;;;;;;;;;22.60;21.00;;;;;;487391;243;2111;-76
2021/12/23 01:09:57;;;;;;;;;;;22.20;21.10;;;;;;487455;243;1003;-76
2021/12/23 01:11:58;;;;;;;;;;;22.60;21.00;;;;;;487419;243;1211;-76
2021/12/23 01:14:03;;;;;;;;;;;22.40;21.20;;;;;;487387;243;977;-76
2021/12/23 01:16:05;;;;;;;;;;;22.20;21.10;;;;;;487192;244;1427;-76
2021/12/23 01:18:08;;;;;;;;;;;22.20;21.10;;;;;;487458;244;1383;-76
2021/12/23 01:20:10;;;;;;;;;;;22.50;21.00;;;;;;487290;243;1533;-76
2021/12/23 01:22:09;;;;;;;;;;;22.50;21.10;;;;;;487232;244;1452;-76
2021/12/23 01:24:10;;;;;;;;;;;22.60;21.10;;;;;;487416;243;1070;-76
2021/12/23 01:26:13;;;;;;;;;;;22.60;21.00;;;;;;487404;243;2199;-76
2021/12/23 01:28:13;;;;;;;;;;;21.90;21.30;;;;;;487312;244;1332;-76
2021/12/23 01:30:14;;;;;;;;;;;21.50;21.50;;;;;;487436;243;941;-76
2021/12/23 01:32:15;;;;;;;;;;;21.20;21.70;;;;;;487346;243;1214;-76
2021/12/23 01:34:17;;;;;;;;;;;21.60;21.60;;;;;;487512;243;1026;-76
2021/12/23 01:36:18;;;;;;;;;;;21.90;21.40;;;;;;487321;243;1220;-76
2021/12/23 01:38:20;;;;;;;;;;;21.90;21.30;;;;;;487368;243;1109;-76
2021/12/23 01:40:21;;;;;;;;;;;22.20;21.30;;;;;;487407;243;1025;-76
2021/12/23 01:42:22;;;;;;;;;;;22.30;21.30;;;;;;487366;243;952;-76
2021/12/23 01:44:24;;;;;;;;;;;22.20;21.10;;;;;;487586;243;1096;-76
2021/12/23 01:46:25;;;;;;;;;;;22.70;20.90;;;;;;487346;243;2115;-76
2021/12/23 01:48:26;;;;;;;;;;;22.30;21.10;;;;;;487432;243;1289;-76
2021/12/23 01:50:28;;;;;;;;;;;22.40;21.00;;;;;;487409;243;973;-76
2021/12/23 01:52:29;;;;;;;;;;;23.00;20.80;;;;;;487413;243;1297;-76
2021/12/23 01:54:30;;;;;;;;;;;22.40;20.90;;;;;;487411;243;948;-76
2021/12/23 01:56:32;;;;;;;;;;;22.20;21.10;;;;;;487328;243;1200;-76
2021/12/23 01:58:33;;;;;;;;;;;21.80;21.30;;;;;;487406;243;957;-76
2021/12/23 02:00:34;;;;;;;;;;;21.90;21.20;;;;;;487315;243;1089;-76
2021/12/23 02:02:36;;;;;;;;;;;22.10;21.30;;;;;;487355;243;1124;-76
2021/12/23 02:04:37;;;;;;;;;;;21.70;21.30;;;;;;487384;243;1033;-76
2021/12/23 02:06:38;;;;;;;;;;;21.90;21.40;;;;;;487316;243;2191;-76
2021/12/23 02:08:40;;;;;;;;;;;22.00;21.40;;;;;;487475;243;1064;-76
2021/12/23 02:10:42;;;;;;;;;;;21.90;21.40;;;;;;487397;243;997;-76
2021/12/23 02:12:43;;;;;;;;;;;22.10;21.40;;;;;;487332;243;1508;-76
2021/12/23 02:14:44;;;;;;;;;;;22.00;21.40;;;;;;487404;243;965;-76
2021/12/23 02:16:45;;;;;;;;;;;22.40;21.10;;;;;;487334;242;1246;-76
2021/12/23 02:18:47;;;;;;;;;;;22.40;21.20;;;;;;487435;243;1174;-76
2021/12/23 02:20:48;;;;;;;;;;;22.10;21.20;;;;;;487306;243;1117;-76
2021/12/23 02:22:49;;;;;;;;;;;22.50;21.20;;;;;;487300;243;1217;-76
2021/12/23 02:24:51;;;;;;;;;;;22.40;21.20;;;;;;487415;243;1329;-76
2021/12/23 02:26:52;;;;;;;;;;;22.60;20.90;;;;;;487491;243;2198;-76
2021/12/23 02:28:53;;;;;;;;;;;22.70;21.10;;;;;;487381;243;1113;-76
2021/12/23 02:30:55;;;;;;;;;;;22.40;21.10;;;;;;487413;243;1220;-76
2021/12/23 02:32:56;;;;;;;;;;;22.40;21.10;;;;;;487376;243;1154;-76
2021/12/23 02:34:57;;;;;;;;;;;21.70;21.40;;;;;;487399;243;1026;-76
2021/12/23 02:36:59;;;;;;;;;;;21.40;21.70;;;;;;487274;243;1154;-76
2021/12/23 02:39:00;;;;;;;;;;;21.20;21.80;;;;;;487400;243;1120;-76
2021/12/23 02:41:01;;;;;;;;;;;21.70;21.70;;;;;;487422;243;1202;-77
2021/12/23 02:43:03;;;;;;;;;;;21.60;21.60;;;;;;487521;243;1044;-76
2021/12/23 02:45:09;;;;;;;;;;;21.80;21.50;;;;;;487455;243;1073;-76
2021/12/23 02:47:06;;;;;;;;;;;21.90;21.40;;;;;;487061;244;2178;-76
2021/12/23 02:49:07;;;;;;;;;;;22.30;21.40;;;;;;487395;243;1182;-76
2021/12/23 02:51:08;;;;;;;;;;;22.40;21.20;;;;;;487400;243;1236;-76
2021/12/23 02:53:10;;;;;;;;;;;22.30;21.00;;;;;;487402;243;1001;-76
2021/12/23 02:55:11;;;;;;;;;;;22.20;21.20;;;;;;487436;243;973;-76
2021/12/23 02:57:13;;;;;;;;;;;22.00;21.30;;;;;;487338;243;1118;-76
2021/12/23 02:59:14;;;;;;;;;;;22.00;21.30;;;;;;487408;243;956;-76
2021/12/23 03:01:16;;;;;;;;;;;22.10;21.30;;;;;;487393;243;1200;-76
2021/12/23 03:03:17;;;;;;;;;;;22.30;21.20;;;;;;487406;243;1146;-76
2021/12/23 03:05:18;;;;;;;;;;;22.10;21.30;;;;;;487462;243;1139;-76
2021/12/23 03:07:20;;;;;;;;;;;21.80;21.30;;;;;;487297;243;2130;-76
2021/12/23 03:09:21;;;;;;;;;;;22.20;21.20;;;;;;487430;243;1097;-76
2021/12/23 03:11:22;;;;;;;;;;;22.10;21.40;;;;;;487358;243;1211;-76
2021/12/23 03:13:24;;;;;;;;;;;22.00;21.30;;;;;;487487;243;1110;-76
2021/12/23 03:15:25;;;;;;;;;;;22.20;21.40;;;;;;487424;243;1093;-76
2021/12/23 03:17:26;;;;;;;;;;;22.10;21.20;;;;;;487378;243;1061;-76
2021/12/23 03:19:28;;;;;;;;;;;22.10;21.40;;;;;;487445;243;1186;-76
2021/12/23 03:21:29;;;;;;;;;;;22.30;21.30;;;;;;487322;243;1318;-76
2021/12/23 03:23:31;;;;;;;;;;;22.00;21.30;;;;;;487417;243;1088;-76
2021/12/23 03:25:32;;;;;;;;;;;22.50;21.10;;;;;;487379;243;1239;-76
2021/12/23 03:27:33;;;;;;;;;;;22.30;21.30;;;;;;487347;243;2198;-76
2021/12/23 03:29:34;;;;;;;;;;;22.30;21.20;;;;;;487460;243;959;-76
2021/12/23 03:31:36;;;;;;;;;;;22.40;21.20;;;;;;487402;243;1321;-76
2021/12/23 03:33:37;;;;;;;;;;;22.60;21.20;;;;;;487515;243;1155;-76
2021/12/23 03:35:38;;;;;;;;;;;22.20;21.30;;;;;;487380;243;1002;-76
2021/12/23 03:37:40;;;;;;;;;;;22.20;21.20;;;;;;487384;243;1070;-76
2021/12/23 03:39:41;;;;;;;;;;;22.10;21.20;;;;;;487404;243;1076;-76
2021/12/23 03:41:42;;;;;;;;;;;21.50;21.60;;;;;;487403;243;1211;-76
2021/12/23 03:43:44;;;;;;;;;;;21.30;21.80;;;;;;487406;243;991;-76
2021/12/23 03:45:45;;;;;;;;;;;21.30;22.00;;;;;;487282;243;1305;-76
2021/12/23 03:47:50;;;;;;;;;;;21.60;21.70;;;;;;487295;243;2211;-76
2021/12/23 03:49:48;;;;;;;;;;;22.10;21.50;;;;;;487163;244;1404;-76
2021/12/23 03:51:49;;;;;;;;;;;22.10;21.50;;;;;;487443;243;1170;-76
2021/12/23 03:53:50;;;;;;;;;;;22.00;21.50;;;;;;487437;243;1211;-76
2021/12/23 03:55:52;;;;;;;;;;;22.30;21.40;;;;;;487380;243;1109;-76
2021/12/23 03:57:53;;;;;;;;;;;22.60;21.30;;;;;;487364;243;1089;-76
2021/12/23 03:59:54;;;;;;;;;;;22.50;21.30;;;;;;487409;243;1060;-76
2021/12/23 04:01:56;;;;;;;;;;;22.30;21.30;;;;;;487333;243;1370;-76
2021/12/23 04:03:57;;;;;;;;;;;21.90;21.50;;;;;;487387;243;1145;-76
2021/12/23 04:05:58;;;;;;;;;;;22.00;21.50;;;;;;487313;243;1290;-76
2021/12/23 04:08:00;;;;;;;;;;;22.50;21.30;;;;;;487333;243;2127;-76
2021/12/23 04:10:01;;;;;;;;;;;22.20;21.50;;;;;;487365;243;955;-76
2021/12/23 04:12:02;;;;;;;;;;;22.20;21.30;;;;;;487298;243;1052;-76
2021/12/23 04:14:04;;;;;;;;;;;22.30;21.20;;;;;;487392;243;966;-76
2021/12/23 04:16:05;;;;;;;;;;;22.20;21.40;;;;;;487306;243;1236;-77
2021/12/23 04:18:06;;;;;;;;;;;22.50;21.10;;;;;;487325;243;1176;-76
2021/12/23 04:20:15;;;;;;;;;;;22.60;21.30;;;;;;487470;243;1173;-76
2021/12/23 04:22:12;;;;;;;;;;;22.40;21.10;;;;;;487034;244;1423;-76
2021/12/23 04:24:13;;;;;;;;;;;22.70;21.00;;;;;;487382;243;1052;-76
2021/12/23 04:26:14;;;;;;;;;;;22.40;21.10;;;;;;487356;243;1195;-76
2021/12/23 04:28:15;;;;;;;;;;;22.60;21.20;;;;;;487467;243;2201;-76
2021/12/23 04:30:17;;;;;;;;;;;22.30;21.10;;;;;;487378;243;1104;-76
2021/12/23 04:32:18;;;;;;;;;;;22.30;21.30;;;;;;487303;243;1135;-76
2021/12/23 04:34:20;;;;;;;;;;;22.30;21.20;;;;;;487529;243;1139;-77
2021/12/23 04:36:21;;;;;;;;;;;22.20;21.10;;;;;;487327;243;1128;-76
2021/12/23 04:38:22;;;;;;;;;;;22.40;21.10;;;;;;487346;243;1099;-76
2021/12/23 04:40:24;;;;;;;;;;;22.50;21.20;;;;;;487380;243;930;-76
2021/12/23 04:42:25;;;;;;;;;;;22.30;21.30;;;;;;487303;243;1101;-76
2021/12/23 04:44:26;;;;;;;;;;;22.20;21.20;;;;;;487340;243;1099;-76
2021/12/23 04:46:28;;;;;;;;;;;22.10;21.10;;;;;;487490;243;1224;-76
2021/12/23 04:48:29;;;;;;;;;;;21.70;21.40;;;;;;487485;243;2185;-76
2021/12/23 04:50:30;;;;;;;;;;;21.40;21.70;;;;;;487407;243;1221;-76
2021/12/23 04:52:32;;;;;;;;;;;21.70;21.80;;;;;;487469;243;1114;-76
2021/12/23 04:54:33;;;;;;;;;;;21.60;21.60;;;;;;487440;243;960;-76
2021/12/23 04:56:34;;;;;;;;;;;22.20;21.30;;;;;;487247;240;1219;-76
2021/12/23 04:58:36;;;;;;;;;;;22.40;21.10;;;;;;487332;243;1061;-77
2021/12/23 05:00:37;;;;;;;;;;;22.30;21.20;;;;;;487360;243;947;-76
2021/12/23 05:02:38;;;;;;;;;;;22.60;20.90;;;;;;487332;243;1110;-76
2021/12/23 05:04:40;;;;;;;;;;;22.60;20.90;;;;;;487392;243;1154;-76
2021/12/23 05:06:41;;;;;;;;;;;22.40;20.90;;;;;;487270;243;1294;-76
2021/12/23 05:08:42;;;;;;;;;;;22.70;20.80;;;;;;487340;243;2142;-76
2021/12/23 05:10:44;;;;;;;;;;;22.40;20.80;;;;;;487348;243;1167;-76
2021/12/23 05:12:46;;;;;;;;;;;22.30;21.10;;;;;;487375;243;1247;-77
2021/12/23 05:14:46;;;;;;;;;;;22.20;21.10;;;;;;487296;243;1286;-77
2021/12/23 05:16:48;;;;;;;;;;;22.50;20.90;;;;;;487230;243;1151;-76
2021/12/23 05:18:49;;;;;;;;;;;22.90;20.80;;;;;;487297;243;1024;-76
2021/12/23 05:20:51;;;;;;;;;;;22.70;20.80;;;;;;487263;243;1187;-76
2021/12/23 05:22:52;;;;;;;;;;;22.60;20.70;;;;;;487376;243;1130;-76
2021/12/23 05:24:53;;;;;;;;;;;23.10;20.70;;;;;;487278;243;980;-76
2021/12/23 05:26:54;;;;;;;;;;;22.80;20.70;;;;;;487131;243;1189;-76
2021/12/23 05:28:56;;;;;;;;;;;22.70;20.60;;;;;;487288;243;2193;-76
2021/12/23 05:30:57;;;;;;;;;;;22.90;20.60;;;;;;487230;240;1308;-76
2021/12/23 05:32:58;;;;;;;;;;;22.60;20.80;;;;;;487201;243;1093;-76
2021/12/23 05:34:59;;;;;;;;;;;22.70;20.50;;;;;;487288;243;1043;-76
2021/12/23 05:37:01;;;;;;;;;;;22.50;20.80;;;;;;487315;243;1270;-76
2021/12/23 05:39:02;;;;;;;;;;;22.60;20.80;;;;;;487291;243;1107;-76
2021/12/23 05:41:04;;;;;;;;;;;22.70;20.70;;;;;;487346;243;1184;-76
2021/12/23 05:43:05;;;;;;;;;;;22.60;20.60;;;;;;487260;243;1152;-76
2021/12/23 05:45:06;;;;;;;;;;;22.60;20.80;;;;;;487316;243;967;-76
2021/12/23 05:47:07;;;;;;;;;;;22.50;20.70;;;;;;487228;243;1068;-76
2021/12/23 05:49:09;;;;;;;;;;;22.70;20.60;;;;;;487274;243;2190;-76
2021/12/23 05:51:10;;;;;;;;;;;22.50;20.80;;;;;;487261;240;1283;-76
2021/12/23 05:53:11;;;;;;;;;;;22.10;20.70;;;;;;487301;243;1140;-76
2021/12/23 05:55:13;;;;;;;;;;;21.70;21.00;;;;;;487293;243;1004;-76
2021/12/23 05:57:14;;;;;;;;;;;21.40;21.20;;;;;;487241;243;1083;-77
2021/12/23 05:59:15;;;;;;;;;;;21.70;21.30;;;;;;487262;243;1049;-76
2021/12/23 06:01:17;;;;;;;;;;;21.60;21.20;;;;;;487250;243;1197;-76
2021/12/23 06:03:18;;;;;;;;;;;22.00;21.00;;;;;;487175;243;1243;-76
2021/12/23 06:05:19;;;;;;;;;;;22.20;20.90;;;;;;487238;244;1080;-76
2021/12/23 06:07:21;;;;;;;;;;;22.20;20.80;;;;;;487117;243;1137;-76
2021/12/23 06:09:22;;;;;;;;;;;22.20;20.80;;;;;;487242;243;2182;-76
2021/12/23 06:11:23;;;;;;;;;;;22.50;20.70;;;;;;487258;243;1185;-76
2021/12/23 06:13:25;;;;;;;;;;;22.40;20.50;;;;;;487256;243;1130;-76
2021/12/23 06:15:26;;;;;;;;;;;22.40;20.70;;;;;;487303;243;1214;-76
2021/12/23 06:17:27;;;;;;;;;;;22.30;20.70;;;;;;487123;243;1070;-76
2021/12/23 06:19:29;;;;;;;;;;;22.10;20.70;;;;;;487332;243;966;-76
2021/12/23 06:21:31;;;;;;;;;;;21.80;20.90;;;;;;487285;243;1139;-76
2021/12/23 06:23:31;;;;;;;;;;;22.10;20.70;;;;;;487199;244;1424;-76
2021/12/23 06:25:32;;;;;;;;;;;21.90;20.80;;;;;;487223;243;1319;-76
2021/12/23 06:27:34;;;;;;;;;;;22.40;20.60;;;;;;487096;243;1095;-76
2021/12/23 06:29:35;;;;;;;;;;;22.50;20.50;;;;;;487126;243;2178;-76
2021/12/23 06:31:36;;;;;;;;;;;22.80;20.50;;;;;;487282;243;1512;-76
2021/12/23 06:33:38;;;;;;;;;;;22.30;20.60;;;;;;487313;243;983;-76
2021/12/23 06:35:39;;;;;;;;;;;22.70;20.40;;;;;;487273;243;1338;-76
2021/12/23 06:37:40;;;;;;;;;;;22.50;20.60;;;;;;487182;243;1168;-76
2021/12/23 06:39:44;;;;;;;;;;;22.50;20.50;;;;;;487250;243;989;-76
2021/12/23 06:41:43;;;;;;;;;;;22.60;20.50;;;;;;487018;244;1462;-76
2021/12/23 06:43:44;;;;;;;;;;;22.40;20.50;;;;;;487186;243;1024;-77
2021/12/23 06:45:46;;;;;;;;;;;22.30;20.50;;;;;;487189;243;1154;-76
2021/12/23 06:47:47;;;;;;;;;;;22.40;20.50;;;;;;487332;243;1105;-76
2021/12/23 06:49:48;;;;;;;;;;;22.70;20.30;;;;;;487341;243;2189;-76
2021/12/23 06:51:50;;;;;;;;;;;22.30;20.50;;;;;;487184;244;1115;-76
2021/12/23 06:53:51;;;;;;;;;;;22.30;20.50;;;;;;487249;243;1127;-76
2021/12/23 06:55:52;;;;;;;;;;;22.50;20.40;;;;;;487229;243;1179;-76
2021/12/23 06:57:56;;;;;;;;;;;22.20;20.40;;;;;;487159;243;1031;-76
2021/12/23 06:59:55;;;;;;;;;;;21.90;20.60;;;;;;487056;244;1359;-76
2021/12/23 07:01:56;;;;;;;;;;;21.60;20.90;;;;;;487101;243;1211;-76
2021/12/23 07:04:06;;;;;;;;;;;21.20;21.00;;;;;;487110;243;1014;-76
2021/12/23 07:06:06;;;;;;;;;;;21.40;21.00;;;;;;487073;244;1414;-76
2021/12/23 07:08:10;;;;;;;;;;;21.80;21.00;;;;;;487118;244;1280;-76
2021/12/23 07:10:07;;;;;;;;;;;21.60;20.90;;;;;;487005;243;1401;-76
2021/12/23 07:12:09;;;;;;;;;;;22.30;20.50;;;;;;487157;243;1211;-76
2021/12/23 07:14:10;;;;;;;;;;;22.20;20.50;;;;;;487187;243;1138;-76
2021/12/23 07:16:11;;;;;;;;;;;22.20;20.50;;;;;;487176;243;1186;-76
2021/12/23 07:18:13;;;;;;;;;;;22.50;20.50;;;;;;487218;243;1080;-76
2021/12/23 07:20:14;;;;;;;;;;;22.80;20.20;;;;;;487189;243;965;-76
2021/12/23 07:22:15;;;;;;;;;;;22.60;20.20;;;;;;487197;243;1171;-76
2021/12/23 07:24:17;;;;;;;;;;;22.30;20.40;;;;;;487039;243;1009;-76
2021/12/23 07:26:18;;;;;;;;;;;22.20;20.60;;;;;;487148;243;1219;-76
2021/12/23 07:28:19;;;;;;;;;;;22.20;20.50;;;;;;487202;243;2116;-76
2021/12/23 07:30:21;;;;;;;;;;;22.50;20.40;;;;;;487116;243;1012;-76
2021/12/23 07:32:22;;;;;;;;;;;22.90;20.20;;;;;;487021;243;1502;-76
2021/12/23 07:34:23;;;;;;;;;;;22.60;20.40;;;;;;487086;243;1115;-76
2021/12/23 07:36:25;;;;;;;;;;;22.40;20.50;;;;;;487182;243;1187;-76
2021/12/23 07:38:26;;;;;;;;;;;22.40;20.30;;;;;;487185;243;1168;-76
2021/12/23 07:40:27;;;;;;;;;;;22.50;20.50;;;;;;487212;243;970;-77
2021/12/23 07:42:31;;;;;;;;;;;22.50;20.50;;;;;;487151;243;1207;-76
2021/12/23 07:44:30;;;;;;;;;;;22.40;20.50;;;;;;487070;244;1342;-76
2021/12/23 07:46:31;;;;;;;;;;;22.70;20.40;;;;;;487149;243;1176;-76
2021/12/23 07:48:32;;;;;;;;;;;22.30;20.50;;;;;;487258;243;2182;-76
2021/12/23 07:50:34;;;;;;;;;;;22.20;20.70;;;;;;487069;243;1312;-76
2021/12/23 07:52:35;;;;;;;;;;;22.30;20.60;;;;;;487197;243;1122;-76
2021/12/23 07:54:36;;;;;;;;;;;22.20;20.50;;;;;;487197;243;1085;-76
2021/12/23 07:56:38;;;;;;;;;;;22.50;20.50;;;;;;486994;243;1169;-76
2021/12/23 07:58:39;;;;;;;;;;;22.40;20.50;;;;;;487055;243;1097;-76
2021/12/23 08:00:40;;;;;;;;;;;22.70;20.40;;;;;;487035;243;1179;-76
2021/12/23 08:02:42;;;;;;;;;;;22.60;20.60;;;;;;487058;243;1160;-76
2021/12/23 08:04:43;;;;;;;;;;;22.10;20.60;;;;;;487247;243;1066;-76
2021/12/23 08:06:47;;;;;;;;;;;21.60;21.00;;;;;;486942;243;1206;-76
2021/12/23 08:08:46;;;;;;;;;;;21.30;21.20;;;;;;486962;243;2155;-76
2021/12/23 08:10:48;;;;;;;;;;;21.10;21.40;;;;;;487067;243;1143;-76
2021/12/23 08:12:49;;;;;;;;;;;21.40;21.30;;;;;;487078;243;1234;-77
2021/12/23 08:14:50;;;;;;;;;;;21.60;21.20;;;;;;487145;243;1133;-76
2021/12/23 08:16:51;;;;;;;;;;;21.90;21.20;;;;;;486977;243;1216;-76
2021/12/23 08:18:52;;;;;;;;;;;21.80;21.10;;;;;;487042;243;1025;-76
2021/12/23 08:20:54;;;;;;;;;;;22.30;20.80;;;;;;487011;243;1011;-76
2021/12/23 08:22:55;;;;;;;;;;;22.40;20.90;;;;;;487029;243;1148;-76
2021/12/23 08:24:56;;;;;;;;;;;22.30;20.90;;;;;;487025;243;1079;-76
2021/12/23 08:26:58;;;;;;;;;;;22.30;20.90;;;;;;487122;243;1093;-76
2021/12/23 08:28:59;;;;;;;;;;;22.10;21.10;;;;;;487078;243;2182;-76
2021/12/23 08:31:01;;;;;;;;;;;22.20;21.10;;;;;;487244;243;1159;-76
2021/12/23 08:33:02;;;;;;;;;;;21.80;21.20;;;;;;486968;243;1454;-76
2021/12/23 08:35:03;;;;;;;;;;;22.10;21.20;;;;;;487053;243;1065;-76
2021/12/23 08:37:07;;;;;;;;;;;21.90;21.30;;;;;;487058;243;1242;-76
2021/12/23 08:39:07;;;;;;;;;;;21.80;21.30;;;;;;487126;244;1503;-76
2021/12/23 08:41:08;;;;;;;;;;;22.10;21.30;;;;;;486998;243;937;-76
2021/12/23 08:43:09;;;;;;;;;;;22.30;21.20;;;;;;486853;243;1085;-77
2021/12/23 08:45:10;;;;;;;;;;;22.00;21.40;;;;;;486970;243;1020;-76
2021/12/23 08:47:13;;;;;;;;;;;22.10;21.40;;;;;;486888;243;1187;-76
2021/12/23 08:49:14;;;;;;;;;;;22.70;21.10;;;;;;486935;243;2131;-76
2021/12/23 08:51:15;;;;;;;;;;;22.40;21.30;;;;;;486992;243;1039;-76
2021/12/23 08:53:16;;;;;;;;;;;22.20;21.30;;;;;;487152;243;1125;-76
2021/12/23 08:55:17;;;;;;;;;;;22.20;21.40;;;;;;487034;243;978;-76
2021/12/23 08:57:19;;;;;;;;;;;22.60;21.30;;;;;;487152;243;1183;-76
2021/12/23 08:59:20;;;;;;;;;;;22.30;21.30;;;;;;487037;243;1092;-76
2021/12/23 09:01:21;;;;;;;;;;;22.50;21.30;;;;;;486973;243;1265;-77
2021/12/23 09:03:23;;;;;;;;;;;22.20;21.50;;;;;;486914;243;1051;-76
2021/12/23 09:05:24;;;;;;;;;;;22.40;21.40;;;;;;486882;243;955;-76
2021/12/23 09:07:25;;;;;;;;;;;22.10;21.50;;;;;;486999;243;1240;-76
2021/12/23 09:09:30;;;;;;;;;;;22.00;21.60;;;;;;487023;243;2194;-76
2021/12/23 09:11:28;;;;;;;;;;;21.80;21.80;;;;;;486948;244;1345;-76
2021/12/23 09:13:29;;;;;;;;;;;21.40;22.10;;;;;;487072;243;960;-76
2021/12/23 09:15:31;;;;;;;;;;;21.10;22.40;;;;;;487146;243;1055;-76
2021/12/23 09:17:32;;;;;;;;;;;21.10;22.50;;;;;;487103;243;1153;-76
2021/12/23 09:19:33;;;;;;;;;;;21.10;22.50;;;;;;486949;243;976;-76
2021/12/23 09:21:35;;;;;;;;;;;21.40;22.40;;;;;;486989;243;1474;-76
2021/12/23 09:23:36;;;;;;;;;;;21.50;22.30;;;;;;487032;243;1212;-76
2021/12/23 09:25:38;;;;;;;;;;;21.70;22.20;;;;;;487024;243;1057;-76
2021/12/23 09:27:50;;;;;;;;;;;21.70;22.30;;;;;;487048;243;1105;-75
2021/12/23 09:34:19;;;;;;;;;;;22.10;22.10;;;;;;487069;244;1030;-76
2021/12/23 09:36:20;;;;;;;;;;;21.60;22.30;;;;;;486769;243;1124;-76
2021/12/23 09:38:27;;;;;;;;;;;22.00;22.10;;;;;;486937;243;1097;-76
2021/12/23 09:40:23;;;;;;;;;;;21.60;22.40;;;;;;486571;244;1423;-76
2021/12/23 09:42:24;;;;;;;;;;;21.70;22.40;;;;;;487206;243;1170;-76
2021/12/23 09:44:25;;;;;;;;;;;22.10;22.30;;;;;;487082;243;1087;-76
2021/12/23 09:46:27;;;;;;;;;;;22.10;22.40;;;;;;487066;243;1027;-76
2021/12/23 09:48:28;;;;;;;;;;;22.30;22.40;;;;;;487062;243;1009;-76
2021/12/23 09:50:29;;;;;;;;;;;22.10;22.50;;;;;;487026;243;2193;-76
2021/12/23 09:52:31;;;;;;;;;;;22.40;22.40;;;;;;487020;243;1190;-76
2021/12/23 09:54:32;;;;;;;;;;;22.10;22.40;;;;;;486931;243;1163;-76
2021/12/23 09:56:33;;;;;;;;;;;22.10;22.50;;;;;;486878;243;1056;-76
2021/12/23 09:58:35;;;;;;;;;;;22.00;22.60;;;;;;486941;243;1078;-76
2021/12/23 10:00:36;;;;;;;;;;;22.10;22.60;;;;;;486919;243;1049;-76
2021/12/23 10:02:40;;;;;;;;;;;22.20;22.60;;;;;;487103;243;1168;-76
2021/12/23 10:04:39;;;;;;;;;;;22.00;22.50;;;;;;486946;244;1443;-76
2021/12/23 10:06:40;;;;;;;;;;;21.90;22.60;;;;;;487073;243;1291;-76
2021/12/23 10:08:41;;;;;;;;;;;21.90;22.70;;;;;;487033;243;1157;-76
2021/12/23 10:10:47;;;;;;;;;;;22.30;22.70;;;;;;487032;243;2115;-76
2021/12/23 10:27:34;;;;;;;;;;;21.60;23.20;;;;;;486971;243;1115;-76
2021/12/23 10:31:49;;;;;;;;;;;21.80;23.00;;;;;;464713;256;1340;-76
2021/12/23 10:37:03;;;;;;;;;;;22.00;22.90;;;;;;464720;256;1364;-76
2021/12/23 10:38:08;;;;;;;;;;;22.20;22.80;;;;;;488439;243;1123;-76
2021/12/23 10:40:10;;;;;;;;;;;22.00;22.90;;;;;;487003;243;1194;-76
2021/12/23 10:42:11;;;;;;;;;;;22.20;22.70;;;;;;487085;243;1116;-76
2021/12/23 10:44:12;;;;;;;;;;;21.80;23.00;;;;;;486908;243;1052;-76
2021/12/23 10:46:14;;;;;;;;;;;22.00;23.00;;;;;;486931;243;1166;-76
2021/12/23 10:48:16;;;;;;;;;;;22.10;22.90;;;;;;487054;243;1079;-76
2021/12/23 10:50:16;;;;;;;;;;;22.20;22.90;;;;;;487016;244;2107;-76
2021/12/23 10:52:24;;;;;;;;;;;22.40;22.90;;;;;;487048;243;1120;-76
2021/12/23 10:57:57;;;;;;;;;;;22.00;23.00;;;;;;486788;244;1430;-76
2021/12/23 10:58:40;;;;;;;;;;;22.20;23.00;;;;;;487115;245;1205;-76
2021/12/23 11:00:41;;;;;;;;;;;22.00;23.10;;;;;;487034;243;993;-76
2021/12/23 11:02:43;;;;;;;;;;;22.20;22.90;;;;;;486960;243;1203;-76
2021/12/23 11:04:44;;;;;;;;;;;22.50;22.90;;;;;;486859;243;1002;-76
2021/12/23 11:06:47;;;;;;;;;;;22.10;23.00;;;;;;486988;243;1208;-76
2021/12/23 11:08:53;;;;;;;;;;;22.40;23.10;;;;;;486882;244;1432;-76
2021/12/23 11:11:30;;;;;;;;;;;22.30;23.00;;;;;;486518;244;2185;-76
2021/12/23 11:27:36;;;;;;;;;;;21.80;23.40;;;;;;487030;244;1142;-76
2021/12/23 11:35:33;;;;;;;;;;;21.60;23.70;;;;;;487075;243;1311;-76
2021/12/23 11:39:11;;;;;;;;;;;22.30;23.20;;;;;;487080;243;1200;-76
2021/12/23 11:41:17;;;;;;;;;;;22.20;23.30;;;;;;486639;244;1515;-76
2021/12/23 11:43:28;;;;;;;;;;;22.30;23.10;;;;;;486463;244;1481;-76
2021/12/23 11:45:26;;;;;;;;;;;22.80;23.00;;;;;;486783;244;1430;-76
2021/12/23 11:47:27;;;;;;;;;;;22.70;22.80;;;;;;486943;243;1100;-76
2021/12/23 11:49:28;;;;;;;;;;;22.50;23.10;;;;;;487002;243;958;-76
2021/12/23 11:51:32;;;;;;;;;;;22.70;23.00;;;;;;487102;243;2174;-75
2021/12/23 11:53:31;;;;;;;;;;;22.40;23.30;;;;;;486845;244;1271;-76
2021/12/23 11:55:32;;;;;;;;;;;22.50;23.30;;;;;;486937;243;1132;-76
2021/12/23 11:57:36;;;;;;;;;;;22.50;23.10;;;;;;487261;243;1327;-76
2021/12/23 11:59:35;;;;;;;;;;;22.90;23.00;;;;;;487152;244;1429;-76
2021/12/23 12:01:36;;;;;;;;;;;22.60;23.20;;;;;;487001;243;1260;-76
2021/12/23 12:03:37;;;;;;;;;;;22.80;23.00;;;;;;486983;243;927;-76
2021/12/23 12:05:39;;;;;;;;;;;22.80;23.10;;;;;;487063;243;1077;-76
2021/12/23 12:07:40;;;;;;;;;;;23.00;23.00;;;;;;487235;243;1186;-76
2021/12/23 12:09:41;;;;;;;;;;;22.90;23.00;;;;;;487077;243;1060;-76
2021/12/23 12:11:43;;;;;;;;;;;22.70;23.10;;;;;;487140;243;2194;-76
2021/12/23 12:13:44;;;;;;;;;;;22.70;23.20;;;;;;487076;243;961;-76
2021/12/23 12:15:47;;;;;;;;;;;22.70;23.30;;;;;;487028;243;1240;-76
2021/12/23 12:17:49;;;;;;;;;;;22.80;23.10;;;;;;487217;243;1194;-76
2021/12/23 12:19:49;;;;;;;;;;;23.20;23.10;;;;;;486970;243;1413;-76
2021/12/23 12:21:51;;;;;;;;;;;22.80;23.20;;;;;;487125;243;1178;-76
2021/12/23 12:23:52;;;;;;;;;;;23.30;23.10;;;;;;487110;243;1107;-76
2021/12/23 12:25:55;;;;;;;;;;;23.30;23.00;;;;;;487016;243;1276;-76
2021/12/23 12:27:55;;;;;;;;;;;23.10;23.00;;;;;;486979;243;1371;-76
2021/12/23 12:29:56;;;;;;;;;;;23.40;22.90;;;;;;487121;243;2182;-76
2021/12/23 12:31:58;;;;;;;;;;;22.70;23.30;;;;;;487058;243;1270;-76
2021/12/23 12:33:59;;;;;;;;;;;22.20;23.70;;;;;;487027;243;1072;-76
2021/12/23 12:36:00;;;;;;;;;;;21.80;24.00;;;;;;486987;243;1392;-76
2021/12/23 12:38:02;;;;;;;;;;;22.30;23.80;;;;;;487048;243;1143;-76
2021/12/23 12:40:03;;;;;;;;;;;22.60;23.80;;;;;;487105;243;1087;-76
2021/12/23 12:42:07;;;;;;;;;;;22.70;23.60;;;;;;486926;243;1139;-76
2021/12/23 12:44:09;;;;;;;;;;;23.20;23.20;;;;;;486944;244;1499;-76
2021/12/23 12:46:08;;;;;;;;;;;23.20;23.30;;;;;;486787;244;1440;-76
2021/12/23 12:48:10;;;;;;;;;;;23.30;23.20;;;;;;487058;243;1012;-76